Time;durP1;ratioP1;P1;durP2;ratioP2;P2;SDS_P1;SDS_P2;PMS_P1;PMS_P2;Temp;Humidity;BMP_temperature;BMP_pressure;BME280_temperature;BME280_humidity;BME280_pressure;Samples;Min_cycle;Max_cycle;Signal;HPM_P1;HPM_P2
2023/12/27 00:01:25;;;;;;;12.83;2.83;;;;;;;;;;5032670;28;20575;-78
2023/12/27 00:03:52;;;;;;;8.47;2.80;;;;;;;;;;5033217;28;20483;-78
2023/12/27 00:06:19;;;;;;;13.23;3.03;;;;;;;;;;5032572;28;20472;-78
2023/12/27 00:08:45;;;;;;;7.63;2.80;;;;;;;;;;5032929;28;20902;-78
2023/12/27 00:11:16;;;;;;;9.63;3.23;;;;;;;;;;5032588;28;20544;-78
2023/12/27 00:13:43;;;;;;;13.90;3.17;;;;;;;;;;5033490;28;20592;-78
2023/12/27 00:16:09;;;;;;;5.87;2.33;;;;;;;;;;5032625;28;20532;-79
2023/12/27 00:18:36;;;;;;;10.83;2.90;;;;;;;;;;5033249;28;20460;-78
2023/12/27 00:21:02;;;;;;;11.53;2.67;;;;;;;;;;5032351;28;20854;-79
2023/12/27 00:23:28;;;;;;;10.87;2.10;;;;;;;;;;5032736;28;20969;-78
2023/12/27 00:25:55;;;;;;;11.63;2.80;;;;;;;;;;5032700;28;20468;-79
2023/12/27 00:28:23;;;;;;;4.70;2.13;;;;;;;;;;5035180;28;20877;-78
2023/12/27 00:30:51;;;;;;;8.50;2.93;;;;;;;;;;5038259;28;20468;-77
2023/12/27 00:33:17;;;;;;;11.00;3.50;;;;;;;;;;5038000;28;20835;-78
2023/12/27 00:35:44;;;;;;;5.30;2.50;;;;;;;;;;5037550;28;21017;-78
2023/12/27 00:38:10;;;;;;;10.83;3.00;;;;;;;;;;5037518;28;20507;-78
2023/12/27 00:40:36;;;;;;;15.13;2.60;;;;;;;;;;5038235;28;20480;-78
2023/12/27 00:43:03;;;;;;;8.73;2.90;;;;;;;;;;5037310;28;21031;-78
2023/12/27 00:45:31;;;;;;;7.23;2.27;;;;;;;;;;5037852;28;20879;-78
2023/12/27 00:47:57;;;;;;;5.83;2.07;;;;;;;;;;5037253;28;20500;-78
2023/12/27 00:50:24;;;;;;;12.40;2.70;;;;;;;;;;5038001;28;20867;-78
2023/12/27 00:52:50;;;;;;;6.97;2.50;;;;;;;;;;5037223;28;20560;-77
2023/12/27 00:55:16;;;;;;;10.03;2.43;;;;;;;;;;5037194;28;20493;-78
2023/12/27 00:57:43;;;;;;;11.77;2.93;;;;;;;;;;5036681;28;20508;-78
2023/12/27 01:00:10;;;;;;;9.30;2.23;;;;;;;;;;5037968;28;20449;-78
2023/12/27 01:02:37;;;;;;;5.33;1.83;;;;;;;;;;5037048;28;20526;-78
2023/12/27 01:05:04;;;;;;;9.90;3.03;;;;;;;;;;5037394;28;20558;-78
2023/12/27 01:07:31;;;;;;;6.30;3.00;;;;;;;;;;5036674;28;21006;-78
2023/12/27 01:09:57;;;;;;;5.63;2.27;;;;;;;;;;5037096;28;20483;-78
2023/12/27 01:12:23;;;;;;;12.27;3.60;;;;;;;;;;5037019;28;20492;-78
2023/12/27 01:14:50;;;;;;;12.50;2.40;;;;;;;;;;5037267;28;20992;-78
2023/12/27 01:17:16;;;;;;;10.30;2.30;;;;;;;;;;5037255;28;21062;-78
2023/12/27 01:19:44;;;;;;;8.13;2.40;;;;;;;;;;5037202;28;20473;-78
2023/12/27 01:22:11;;;;;;;8.50;2.60;;;;;;;;;;5036714;28;20526;-78
2023/12/27 01:24:37;;;;;;;13.73;3.80;;;;;;;;;;5037427;28;20515;-78
2023/12/27 01:27:04;;;;;;;8.60;3.60;;;;;;;;;;5036727;28;20492;-78
2023/12/27 01:29:30;;;;;;;11.73;3.67;;;;;;;;;;5037163;28;20472;-78
2023/12/27 01:31:57;;;;;;;10.57;2.70;;;;;;;;;;5036768;28;20504;-78
2023/12/27 01:34:23;;;;;;;8.33;2.73;;;;;;;;;;5036807;28;20540;-78
2023/12/27 01:36:51;;;;;;;7.60;2.80;;;;;;;;;;5036874;28;20492;-79
2023/12/27 01:39:17;;;;;;;10.80;2.97;;;;;;;;;;5036834;28;20987;-79
2023/12/27 01:41:44;;;;;;;4.10;1.70;;;;;;;;;;5036045;28;20501;-78
2023/12/27 01:44:10;;;;;;;10.07;2.90;;;;;;;;;;5036844;28;20508;-78
2023/12/27 01:46:37;;;;;;;8.80;2.60;;;;;;;;;;5036221;28;20888;-78
2023/12/27 01:49:03;;;;;;;6.03;2.80;;;;;;;;;;5036353;28;20864;-78
2023/12/27 01:51:30;;;;;;;4.17;2.90;;;;;;;;;;5036402;28;20915;-78
2023/12/27 01:54:00;;;;;;;4.47;2.60;;;;;;;;;;5036725;28;20515;-78
2023/12/27 01:56:27;;;;;;;8.83;2.37;;;;;;;;;;5036082;28;20997;-78
2023/12/27 01:58:53;;;;;;;5.50;2.37;;;;;;;;;;5036586;28;20472;-78
2023/12/27 02:01:20;;;;;;;8.63;3.33;;;;;;;;;;5036105;28;20488;-78
2023/12/27 02:03:46;;;;;;;11.93;2.60;;;;;;;;;;5036770;28;20443;-78
2023/12/27 02:06:13;;;;;;;8.43;3.27;;;;;;;;;;5035800;28;20547;-78
2023/12/27 02:08:39;;;;;;;4.17;3.13;;;;;;;;;;5036463;28;20472;-78
2023/12/27 02:11:07;;;;;;;9.53;2.80;;;;;;;;;;5035858;28;20481;-78
2023/12/27 02:13:34;;;;;;;14.20;3.70;;;;;;;;;;5036088;28;20535;-78
2023/12/27 02:16:00;;;;;;;4.47;2.73;;;;;;;;;;5035687;28;20500;-78
2023/12/27 02:18:27;;;;;;;11.73;3.80;;;;;;;;;;5036176;28;20465;-78
2023/12/27 02:20:53;;;;;;;8.93;2.53;;;;;;;;;;5035442;28;20484;-78
2023/12/27 02:23:21;;;;;;;5.03;2.90;;;;;;;;;;5036131;28;20927;-78
2023/12/27 02:25:49;;;;;;;7.90;2.53;;;;;;;;;;5036196;28;20464;-78
2023/12/27 02:28:16;;;;;;;10.57;2.00;;;;;;;;;;5035780;28;20552;-78
2023/12/27 02:30:42;;;;;;;6.73;2.73;;;;;;;;;;5036261;28;20483;-78
2023/12/27 02:33:09;;;;;;;7.50;3.77;;;;;;;;;;5034979;28;20503;-80
2023/12/27 02:35:35;;;;;;;4.27;2.30;;;;;;;;;;5035594;28;20465;-78
2023/12/27 02:38:02;;;;;;;7.63;2.70;;;;;;;;;;5035423;28;20500;-78
2023/12/27 02:40:28;;;;;;;4.30;2.10;;;;;;;;;;5035641;28;20479;-78
2023/12/27 02:42:56;;;;;;;6.73;1.97;;;;;;;;;;5035286;28;20504;-78
2023/12/27 02:45:22;;;;;;;6.70;2.77;;;;;;;;;;5035682;28;20887;-78
2023/12/27 02:47:49;;;;;;;16.60;2.90;;;;;;;;;;5035804;28;20527;-78
2023/12/27 02:50:15;;;;;;;13.67;3.00;;;;;;;;;;5035431;28;20527;-78
2023/12/27 02:52:42;;;;;;;10.53;2.57;;;;;;;;;;5034069;28;20518;-80
2023/12/27 02:55:08;;;;;;;12.23;2.77;;;;;;;;;;5035221;28;20460;-80
2023/12/27 02:57:35;;;;;;;10.60;2.10;;;;;;;;;;5034508;28;21075;-80
2023/12/27 03:00:04;;;;;;;7.17;3.73;;;;;;;;;;5035346;28;20421;-79
2023/12/27 03:02:30;;;;;;;6.00;2.10;;;;;;;;;;5034523;28;20531;-79
2023/12/27 03:04:57;;;;;;;10.93;3.10;;;;;;;;;;5035086;28;20540;-79
2023/12/27 03:07:23;;;;;;;7.13;3.30;;;;;;;;;;5035111;28;21026;-79
2023/12/27 03:09:49;;;;;;;10.30;2.70;;;;;;;;;;5035415;28;20536;-79
2023/12/27 03:12:16;;;;;;;11.83;2.90;;;;;;;;;;5034577;28;20555;-79
2023/12/27 03:14:42;;;;;;;15.00;2.10;;;;;;;;;;5035276;28;20480;-79
2023/12/27 03:17:10;;;;;;;8.23;2.70;;;;;;;;;;5035002;28;20986;-79
2023/12/27 03:19:37;;;;;;;4.57;2.37;;;;;;;;;;5035161;28;20904;-79
2023/12/27 03:22:03;;;;;;;4.17;2.70;;;;;;;;;;5034316;28;20476;-80
2023/12/27 03:24:30;;;;;;;9.13;2.60;;;;;;;;;;5034938;28;20552;-79
2023/12/27 03:26:56;;;;;;;6.63;2.37;;;;;;;;;;5034465;28;20505;-79
2023/12/27 03:29:22;;;;;;;7.30;2.77;;;;;;;;;;5034567;28;20472;-80
2023/12/27 03:31:49;;;;;;;11.03;3.30;;;;;;;;;;5034643;28;21026;-79
2023/12/27 03:34:17;;;;;;;8.30;2.13;;;;;;;;;;5035174;28;20516;-80
2023/12/27 03:36:43;;;;;;;7.37;2.50;;;;;;;;;;5034891;28;20564;-79
2023/12/27 03:39:09;;;;;;;7.80;3.27;;;;;;;;;;5035187;28;20862;-80
2023/12/27 03:41:36;;;;;;;4.57;2.00;;;;;;;;;;5034247;28;20499;-80
2023/12/27 03:44:02;;;;;;;6.70;2.53;;;;;;;;;;5035201;28;20460;-79
2023/12/27 03:46:29;;;;;;;3.83;1.90;;;;;;;;;;5034176;28;20489;-80
2023/12/27 03:48:55;;;;;;;9.20;2.00;;;;;;;;;;5035011;28;20479;-79
2023/12/27 03:51:23;;;;;;;11.87;3.10;;;;;;;;;;5034683;28;21032;-79
2023/12/27 03:53:49;;;;;;;20.67;2.97;;;;;;;;;;5034625;28;21011;-80
2023/12/27 03:56:16;;;;;;;10.40;2.27;;;;;;;;;;5034527;28;21003;-80
2023/12/27 03:58:42;;;;;;;12.20;2.63;;;;;;;;;;5034328;28;20541;-80
2023/12/27 04:01:09;;;;;;;5.13;2.10;;;;;;;;;;5034183;28;20973;-80
2023/12/27 04:03:36;;;;;;;9.03;2.87;;;;;;;;;;5036483;28;20485;-80
2023/12/27 04:06:02;;;;;;;7.07;2.30;;;;;;;;;;5038310;28;20985;-81
2023/12/27 04:08:30;;;;;;;4.60;3.10;;;;;;;;;;5038319;28;20523;-80
2023/12/27 04:10:56;;;;;;;10.63;2.60;;;;;;;;;;5038513;28;20483;-80
2023/12/27 04:13:23;;;;;;;11.00;2.07;;;;;;;;;;5039040;28;20451;-79
2023/12/27 04:15:49;;;;;;;3.93;1.77;;;;;;;;;;5039188;28;20488;-79
2023/12/27 04:18:16;;;;;;;5.50;2.20;;;;;;;;;;5038716;28;20484;-79
2023/12/27 04:20:42;;;;;;;4.73;2.20;;;;;;;;;;5039161;28;20452;-79
2023/12/27 04:23:09;;;;;;;5.67;2.30;;;;;;;;;;5038231;28;21081;-79
2023/12/27 04:25:37;;;;;;;4.27;2.20;;;;;;;;;;5038758;28;20491;-80
2023/12/27 04:28:03;;;;;;;4.33;2.00;;;;;;;;;;5038394;28;20555;-79
2023/12/27 04:30:30;;;;;;;10.03;2.57;;;;;;;;;;5038634;28;20476;-79
2023/12/27 04:32:56;;;;;;;4.57;1.80;;;;;;;;;;5038434;28;20932;-79
2023/12/27 04:35:22;;;;;;;4.10;2.00;;;;;;;;;;5039067;28;20492;-80
2023/12/27 04:37:49;;;;;;;6.13;2.00;;;;;;;;;;5038990;28;20469;-79
2023/12/27 04:40:15;;;;;;;8.43;2.40;;;;;;;;;;5039903;28;20468;-79
2023/12/27 04:42:43;;;;;;;3.77;2.40;;;;;;;;;;5038462;28;21021;-80
2023/12/27 04:45:10;;;;;;;12.27;1.97;;;;;;;;;;5039529;28;20511;-79
2023/12/27 04:47:36;;;;;;;5.07;2.13;;;;;;;;;;5039029;28;21017;-79
2023/12/27 04:50:03;;;;;;;3.10;1.53;;;;;;;;;;5038929;28;20480;-80
2023/12/27 04:52:29;;;;;;;4.80;3.53;;;;;;;;;;5038474;28;20994;-80
2023/12/27 04:54:56;;;;;;;4.20;1.70;;;;;;;;;;5039351;28;20873;-79
2023/12/27 04:57:22;;;;;;;6.77;2.03;;;;;;;;;;5038271;28;20503;-80
2023/12/27 04:59:50;;;;;;;13.27;2.83;;;;;;;;;;5038861;28;20473;-79
2023/12/27 05:02:17;;;;;;;7.77;2.17;;;;;;;;;;5038288;28;20906;-80
2023/12/27 05:04:43;;;;;;;4.77;2.50;;;;;;;;;;5038520;28;20484;-80
2023/12/27 05:07:09;;;;;;;10.33;2.73;;;;;;;;;;5038244;28;20910;-79
2023/12/27 05:09:36;;;;;;;10.10;3.17;;;;;;;;;;5039125;28;20977;-79
2023/12/27 05:12:03;;;;;;;4.43;2.10;;;;;;;;;;5038314;28;20507;-79
2023/12/27 05:14:29;;;;;;;5.47;2.67;;;;;;;;;;5038139;28;20907;-80
2023/12/27 05:16:57;;;;;;;8.47;2.63;;;;;;;;;;5038064;28;21047;-79
2023/12/27 05:19:23;;;;;;;4.67;2.63;;;;;;;;;;5038574;28;21005;-79
2023/12/27 05:21:50;;;;;;;4.73;2.30;;;;;;;;;;5038385;28;20500;-79
2023/12/27 05:24:16;;;;;;;3.93;2.80;;;;;;;;;;5038688;28;20563;-80
2023/12/27 05:26:43;;;;;;;6.80;2.07;;;;;;;;;;5037890;28;21006;-80
2023/12/27 05:29:10;;;;;;;7.70;2.30;;;;;;;;;;5038772;28;20459;-80
2023/12/27 05:31:37;;;;;;;8.60;1.80;;;;;;;;;;5038216;28;20469;-80
2023/12/27 05:34:05;;;;;;;7.57;2.33;;;;;;;;;;5038117;28;20872;-80
2023/12/27 05:36:31;;;;;;;3.57;2.30;;;;;;;;;;5037585;28;20555;-80
2023/12/27 05:38:57;;;;;;;10.40;3.17;;;;;;;;;;5038910;28;20480;-79
2023/12/27 05:41:25;;;;;;;9.60;2.40;;;;;;;;;;5037044;28;20492;-81
2023/12/27 05:43:52;;;;;;;7.67;2.90;;;;;;;;;;5037983;28;20481;-80
2023/12/27 05:46:19;;;;;;;9.00;2.80;;;;;;;;;;5037443;28;20495;-80
2023/12/27 05:48:45;;;;;;;5.97;2.23;;;;;;;;;;5038381;28;20445;-79
2023/12/27 05:51:13;;;;;;;7.13;2.30;;;;;;;;;;5037845;28;20480;-80
2023/12/27 05:53:40;;;;;;;13.93;2.60;;;;;;;;;;5038368;28;21018;-79
2023/12/27 05:56:07;;;;;;;6.20;2.83;;;;;;;;;;5037724;28;20467;-80
2023/12/27 05:58:34;;;;;;;10.23;2.90;;;;;;;;;;5037912;28;20459;-80
2023/12/27 06:01:00;;;;;;;6.43;1.97;;;;;;;;;;5038129;28;20545;-80
2023/12/27 06:03:26;;;;;;;7.90;3.50;;;;;;;;;;5038714;28;20516;-79
2023/12/27 06:05:53;;;;;;;10.20;2.33;;;;;;;;;;5037471;28;20492;-81
2023/12/27 06:08:21;;;;;;;8.87;3.27;;;;;;;;;;5038018;28;20885;-79
2023/12/27 06:10:48;;;;;;;8.23;2.40;;;;;;;;;;5038111;28;20437;-79
2023/12/27 06:13:15;;;;;;;5.07;2.47;;;;;;;;;;5038420;28;20488;-79
2023/12/27 06:15:41;;;;;;;9.03;2.03;;;;;;;;;;5037640;28;21065;-79
2023/12/27 06:18:08;;;;;;;4.60;2.53;;;;;;;;;;5037630;28;20504;-80
2023/12/27 06:20:35;;;;;;;6.40;1.87;;;;;;;;;;5037448;28;20518;-79
2023/12/27 06:23:01;;;;;;;5.13;2.63;;;;;;;;;;5037202;28;20548;-80
2023/12/27 06:25:29;;;;;;;5.90;2.27;;;;;;;;;;5036609;28;21050;-80
2023/12/27 06:27:55;;;;;;;10.07;4.07;;;;;;;;;;5036958;28;20548;-77
2023/12/27 06:30:22;;;;;;;7.33;3.07;;;;;;;;;;5037007;28;20974;-80
2023/12/27 06:32:48;;;;;;;5.70;2.77;;;;;;;;;;5036895;28;20497;-80
2023/12/27 06:35:15;;;;;;;12.70;3.30;;;;;;;;;;5037198;28;20905;-80
2023/12/27 06:37:41;;;;;;;6.50;2.77;;;;;;;;;;5036313;28;20499;-77
2023/12/27 06:40:09;;;;;;;5.53;2.83;;;;;;;;;;5037277;28;20479;-80
2023/12/27 06:42:37;;;;;;;8.53;2.30;;;;;;;;;;5036669;28;20479;-79
2023/12/27 06:45:03;;;;;;;7.80;2.27;;;;;;;;;;5036396;28;20520;-80
2023/12/27 06:47:30;;;;;;;5.83;3.27;;;;;;;;;;5036329;28;20924;-80
2023/12/27 06:49:55;;;;;;;11.57;3.93;;;;;;;;;;5036067;28;20544;-80
2023/12/27 06:52:22;;;;;;;4.43;2.47;;;;;;;;;;5035926;28;20551;-80
2023/12/27 06:54:48;;;;;;;11.80;2.70;;;;;;;;;;5036273;28;20218;-78
2023/12/27 06:57:14;;;;;;;5.13;2.63;;;;;;;;;;5036556;28;20472;-78
2023/12/27 06:59:42;;;;;;;10.27;3.00;;;;;;;;;;5036698;28;20477;-78
2023/12/27 07:02:09;;;;;;;15.37;2.80;;;;;;;;;;5036422;28;20503;-79
2023/12/27 07:04:37;;;;;;;11.10;3.67;;;;;;;;;;5035211;28;20580;-79
2023/12/27 07:07:04;;;;;;;7.20;3.00;;;;;;;;;;5036170;28;20906;-80
2023/12/27 07:09:31;;;;;;;5.80;3.33;;;;;;;;;;5036058;28;20446;-79
2023/12/27 07:11:57;;;;;;;6.73;3.00;;;;;;;;;;5035453;28;20472;-80
2023/12/27 07:14:23;;;;;;;7.83;2.80;;;;;;;;;;5036305;28;20491;-79
2023/12/27 07:16:51;;;;;;;8.90;3.27;;;;;;;;;;5036413;28;20503;-80
2023/12/27 07:19:18;;;;;;;9.23;3.00;;;;;;;;;;5035920;28;21007;-80
2023/12/27 07:21:44;;;;;;;3.90;3.07;;;;;;;;;;5035927;28;20484;-80
2023/12/27 07:24:11;;;;;;;5.27;3.70;;;;;;;;;;5036523;28;21069;-78
2023/12/27 07:26:37;;;;;;;8.60;3.97;;;;;;;;;;5036216;28;20500;-78
2023/12/27 07:29:04;;;;;;;7.93;4.50;;;;;;;;;;5036314;28;20479;-80
2023/12/27 07:31:30;;;;;;;5.97;4.13;;;;;;;;;;5035648;28;20519;-80
2023/12/27 07:33:58;;;;;;;4.60;3.67;;;;;;;;;;5036142;28;20468;-79
2023/12/27 07:36:25;;;;;;;14.90;4.47;;;;;;;;;;5032077;28;20452;-80
2023/12/27 07:38:51;;;;;;;7.07;4.43;;;;;;;;;;5038159;28;20511;-80
2023/12/27 07:41:18;;;;;;;10.17;4.60;;;;;;;;;;5040286;28;20493;-78
2023/12/27 07:43:44;;;;;;;11.83;4.47;;;;;;;;;;5040269;28;20922;-78
2023/12/27 07:46:11;;;;;;;12.13;4.97;;;;;;;;;;5040116;28;20492;-79
2023/12/27 07:48:37;;;;;;;8.87;5.10;;;;;;;;;;5040192;28;20993;-78
2023/12/27 07:51:05;;;;;;;13.60;5.00;;;;;;;;;;5040063;28;20503;-78
2023/12/27 07:53:32;;;;;;;16.03;7.60;;;;;;;;;;5040183;28;20512;-80
2023/12/27 07:55:58;;;;;;;17.60;5.40;;;;;;;;;;5039522;28;21021;-80
2023/12/27 07:58:24;;;;;;;8.00;4.77;;;;;;;;;;5040152;28;20483;-78
2023/12/27 08:00:53;;;;;;;14.13;5.30;;;;;;;;;;5039390;28;20845;-80
2023/12/27 08:03:19;;;;;;;7.87;5.20;;;;;;;;;;5040425;28;20449;-78
2023/12/27 08:05:45;;;;;;;7.23;5.83;;;;;;;;;;5039050;28;20901;-81
2023/12/27 08:08:13;;;;;;;11.67;5.60;;;;;;;;;;5039318;28;20511;-80
2023/12/27 08:10:40;;;;;;;7.83;5.27;;;;;;;;;;5040346;28;20475;-79
2023/12/27 08:13:07;;;;;;;14.40;5.93;;;;;;;;;;5041035;28;20965;-78
2023/12/27 08:15:34;;;;;;;12.03;5.90;;;;;;;;;;5039931;28;20477;-79
2023/12/27 08:18:03;;;;;;;17.23;6.40;;;;;;;;;;5040270;28;20479;-78
2023/12/27 08:20:29;;;;;;;13.77;5.97;;;;;;;;;;5040012;28;20440;-78
2023/12/27 08:22:58;;;;;;;8.87;5.97;;;;;;;;;;5039562;28;20491;-79
2023/12/27 08:25:26;;;;;;;11.50;6.90;;;;;;;;;;5039272;28;20982;-78
2023/12/27 08:27:52;;;;;;;10.53;6.33;;;;;;;;;;5040809;28;20599;-78
2023/12/27 08:30:19;;;;;;;7.97;6.20;;;;;;;;;;5040972;28;20993;-78
2023/12/27 08:32:45;;;;;;;10.53;6.67;;;;;;;;;;5038855;28;20504;-80
2023/12/27 08:35:12;;;;;;;10.90;6.90;;;;;;;;;;5040197;28;20501;-79
2023/12/27 08:37:38;;;;;;;19.80;9.20;;;;;;;;;;5039581;28;21056;-78
2023/12/27 08:40:06;;;;;;;13.93;7.97;;;;;;;;;;5040083;28;20883;-78
2023/12/27 08:42:34;;;;;;;15.20;7.60;;;;;;;;;;5040527;28;21054;-78
2023/12/27 08:45:01;;;;;;;17.47;7.40;;;;;;;;;;5039942;28;21090;-78
2023/12/27 08:47:27;;;;;;;18.83;7.00;;;;;;;;;;5039469;28;20492;-78
2023/12/27 08:49:55;;;;;;;20.50;7.10;;;;;;;;;;5040888;28;20468;-78
2023/12/27 08:52:21;;;;;;;18.23;6.97;;;;;;;;;;5039839;28;20472;-78
2023/12/27 08:54:48;;;;;;;13.90;7.13;;;;;;;;;;5040691;28;20496;-78
2023/12/27 08:57:14;;;;;;;12.80;8.17;;;;;;;;;;5040301;28;21009;-78
2023/12/27 08:59:42;;;;;;;18.43;6.27;;;;;;;;;;5039765;28;20448;-80
2023/12/27 09:02:09;;;;;;;11.27;5.80;;;;;;;;;;5039511;28;21002;-78
2023/12/27 09:04:35;;;;;;;10.10;6.40;;;;;;;;;;5038597;28;20488;-77
2023/12/27 09:07:03;;;;;;;16.37;7.13;;;;;;;;;;5039187;28;20469;-79
2023/12/27 09:09:30;;;;;;;16.40;6.47;;;;;;;;;;5039352;28;20979;-78
2023/12/27 09:11:57;;;;;;;15.50;5.70;;;;;;;;;;5038846;28;20473;-78
2023/12/27 09:14:23;;;;;;;13.10;6.47;;;;;;;;;;5038890;28;20504;-79
2023/12/27 09:16:51;;;;;;;9.80;5.70;;;;;;;;;;5038375;28;20492;-79
2023/12/27 09:19:17;;;;;;;12.87;7.77;;;;;;;;;;5039300;28;20483;-79
2023/12/27 09:21:44;;;;;;;17.13;7.20;;;;;;;;;;5036337;28;20511;-80
2023/12/27 09:24:11;;;;;;;14.60;8.53;;;;;;;;;;5036645;28;20495;-79
2023/12/27 09:26:38;;;;;;;14.43;8.50;;;;;;;;;;5036242;28;20543;-80
2023/12/27 09:29:04;;;;;;;15.87;8.93;;;;;;;;;;5036204;28;20959;-80
2023/12/27 09:31:31;;;;;;;19.63;10.07;;;;;;;;;;5036214;28;20480;-79
2023/12/27 09:33:59;;;;;;;12.80;9.20;;;;;;;;;;5036226;28;20966;-79
2023/12/27 09:36:26;;;;;;;15.90;10.80;;;;;;;;;;5035616;28;20468;-79
2023/12/27 09:38:52;;;;;;;18.50;10.90;;;;;;;;;;5036306;28;20483;-80
2023/12/27 09:41:19;;;;;;;19.77;11.17;;;;;;;;;;5035464;28;20978;-80
2023/12/27 09:43:46;;;;;;;22.80;10.40;;;;;;;;;;5035824;28;20469;-79
2023/12/27 09:46:14;;;;;;;20.83;10.10;;;;;;;;;;5035310;28;20496;-80
2023/12/27 09:48:41;;;;;;;23.47;10.80;;;;;;;;;;5035805;28;20472;-79
2023/12/27 09:51:11;;;;;;;18.00;10.30;;;;;;;;;;5035327;28;20492;-80
2023/12/27 09:53:39;;;;;;;14.10;8.60;;;;;;;;;;5035652;28;20963;-79
2023/12/27 09:56:07;;;;;;;22.90;10.00;;;;;;;;;;5035381;28;20526;-80
2023/12/27 09:58:36;;;;;;;18.60;10.60;;;;;;;;;;5035789;28;20492;-79
2023/12/27 10:01:03;;;;;;;19.00;8.07;;;;;;;;;;5035045;28;20473;-80
2023/12/27 10:03:34;;;;;;;15.40;7.90;;;;;;;;;;5035908;28;20954;-80
2023/12/27 10:06:05;;;;;;;15.07;8.57;;;;;;;;;;5034715;28;20552;-78
2023/12/27 10:08:34;;;;;;;14.13;8.07;;;;;;;;;;5035331;28;20508;-78
2023/12/27 10:11:02;;;;;;;19.90;9.00;;;;;;;;;;5034216;28;20555;-80
2023/12/27 10:13:29;;;;;;;19.43;8.10;;;;;;;;;;5034861;28;21001;-78
2023/12/27 10:15:55;;;;;;;13.90;7.67;;;;;;;;;;5034098;28;20515;-80
2023/12/27 10:18:22;;;;;;;10.20;7.30;;;;;;;;;;5034867;28;20464;-78
2023/12/27 10:20:48;;;;;;;18.60;9.33;;;;;;;;;;5034349;28;20529;-80
2023/12/27 10:23:14;;;;;;;14.27;7.63;;;;;;;;;;5035088;28;20532;-77
2023/12/27 10:25:43;;;;;;;15.23;7.30;;;;;;;;;;5034101;28;20520;-78
2023/12/27 10:28:10;;;;;;;19.33;7.83;;;;;;;;;;5034885;28;20445;-79
2023/12/27 10:30:36;;;;;;;23.63;6.87;;;;;;;;;;5034097;28;20448;-82
2023/12/27 10:33:03;;;;;;;13.30;6.40;;;;;;;;;;5034744;28;20543;-79
2023/12/27 10:35:31;;;;;;;27.23;9.00;;;;;;;;;;5034565;28;20496;-79
2023/12/27 10:38:01;;;;;;;9.40;6.60;;;;;;;;;;5033957;28;20495;-79
2023/12/27 10:40:27;;;;;;;13.60;6.60;;;;;;;;;;5034481;28;20449;-79
2023/12/27 10:42:55;;;;;;;13.73;6.10;;;;;;;;;;5034433;28;20463;-79
2023/12/27 10:45:21;;;;;;;12.40;5.43;;;;;;;;;;5034111;28;20770;-80
2023/12/27 10:47:47;;;;;;;11.63;5.67;;;;;;;;;;5033370;28;20977;-80
2023/12/27 10:50:15;;;;;;;17.93;6.30;;;;;;;;;;5033603;28;20476;-80
2023/12/27 10:52:42;;;;;;;10.50;5.50;;;;;;;;;;5034092;28;20906;-80
2023/12/27 10:55:09;;;;;;;10.40;6.33;;;;;;;;;;5034169;28;20504;-80
2023/12/27 10:57:36;;;;;;;12.33;6.17;;;;;;;;;;5034290;28;20551;-81
2023/12/27 11:00:08;;;;;;;12.60;6.00;;;;;;;;;;5034056;28;20508;-80
2023/12/27 11:02:36;;;;;;;8.80;5.60;;;;;;;;;;5034181;28;20464;-80
2023/12/27 11:05:05;;;;;;;13.63;5.90;;;;;;;;;;5033714;28;20899;-79
2023/12/27 11:07:35;;;;;;;16.93;7.47;;;;;;;;;;5033914;28;20475;-79
2023/12/27 11:10:05;;;;;;;10.60;5.47;;;;;;;;;;5033727;28;20464;-80
2023/12/27 11:12:33;;;;;;;10.80;5.20;;;;;;;;;;5032489;28;20481;-80
2023/12/27 11:15:02;;;;;;;10.53;5.80;;;;;;;;;;5033672;28;20495;-79
2023/12/27 11:17:31;;;;;;;8.33;5.23;;;;;;;;;;5033643;28;20464;-80
2023/12/27 11:19:58;;;;;;;12.07;6.40;;;;;;;;;;5033946;28;21012;-80
2023/12/27 11:22:24;;;;;;;13.00;4.80;;;;;;;;;;5033561;28;20499;-79
2023/12/27 11:24:51;;;;;;;9.80;5.50;;;;;;;;;;5033127;28;20767;-79
2023/12/27 11:27:18;;;;;;;14.80;5.73;;;;;;;;;;5032988;28;20536;-80
2023/12/27 11:29:44;;;;;;;14.57;4.90;;;;;;;;;;5033667;28;20511;-80
2023/12/27 11:32:11;;;;;;;11.83;5.10;;;;;;;;;;5033097;28;20544;-79
2023/12/27 11:34:39;;;;;;;6.73;4.73;;;;;;;;;;5033436;28;20496;-80
2023/12/27 11:37:06;;;;;;;15.43;5.10;;;;;;;;;;5033312;28;20595;-80
2023/12/27 11:39:33;;;;;;;14.67;5.70;;;;;;;;;;5033517;28;20440;-80
2023/12/27 11:42:00;;;;;;;10.30;4.43;;;;;;;;;;5032847;28;20556;-80
2023/12/27 11:44:37;;;;;;;9.10;4.00;;;;;;;;;;5033472;28;20468;-79
2023/12/27 11:47:05;;;;;;;19.90;4.33;;;;;;;;;;5032989;28;21061;-79
2023/12/27 11:49:32;;;;;;;10.37;4.40;;;;;;;;;;5033270;28;20445;-80
2023/12/27 11:52:01;;;;;;;11.07;3.70;;;;;;;;;;5032967;28;20464;-80
2023/12/27 11:54:27;;;;;;;13.23;4.00;;;;;;;;;;5033139;28;20547;-79
2023/12/27 11:56:54;;;;;;;17.73;5.07;;;;;;;;;;5032942;28;20531;-79
2023/12/27 11:59:21;;;;;;;15.43;4.83;;;;;;;;;;5033062;28;20963;-80
2023/12/27 12:01:48;;;;;;;4.90;3.67;;;;;;;;;;5032839;28;20468;-80
2023/12/27 12:04:36;;;;;;;7.80;4.20;;;;;;;;;;5033462;28;20496;-80
2023/12/27 12:07:15;;;;;;;10.00;4.30;;;;;;;;;;5032869;28;21053;-79
2023/12/27 12:09:42;;;;;;;12.67;4.60;;;;;;;;;;5034222;28;20464;-80
2023/12/27 12:12:10;;;;;;;12.60;4.93;;;;;;;;;;5033227;28;20523;-80
2023/12/27 12:14:36;;;;;;;8.80;4.10;;;;;;;;;;5033345;28;20547;-79
2023/12/27 12:17:03;;;;;;;17.53;5.47;;;;;;;;;;5033232;28;20518;-80
2023/12/27 12:19:31;;;;;;;13.43;5.13;;;;;;;;;;5033071;28;20544;-79
2023/12/27 12:21:58;;;;;;;10.20;4.80;;;;;;;;;;5032658;28;20559;-80
2023/12/27 12:24:26;;;;;;;16.67;5.93;;;;;;;;;;5034367;28;20556;-80
2023/12/27 12:26:54;;;;;;;26.60;6.20;;;;;;;;;;5035913;28;20496;-80
2023/12/27 12:29:21;;;;;;;8.70;5.73;;;;;;;;;;5036971;28;20469;-80
2023/12/27 12:31:48;;;;;;;14.90;6.23;;;;;;;;;;5035982;28;21051;-79
2023/12/27 12:34:14;;;;;;;16.37;5.77;;;;;;;;;;5036653;28;20490;-80
2023/12/27 12:36:40;;;;;;;12.40;5.77;;;;;;;;;;5036106;28;20586;-79
2023/12/27 12:39:07;;;;;;;17.90;6.20;;;;;;;;;;5036612;28;20520;-78
2023/12/27 12:41:35;;;;;;;11.87;5.23;;;;;;;;;;5035827;28;20472;-78
2023/12/27 12:44:02;;;;;;;12.93;5.77;;;;;;;;;;5036185;28;20527;-80
2023/12/27 12:46:29;;;;;;;7.90;4.47;;;;;;;;;;5035456;28;20500;-80
2023/12/27 12:48:55;;;;;;;12.37;5.10;;;;;;;;;;5036215;28;20520;-80
2023/12/27 12:51:22;;;;;;;16.43;4.63;;;;;;;;;;5035671;28;20511;-80
2023/12/27 12:53:48;;;;;;;11.63;5.13;;;;;;;;;;5035759;28;21022;-80
2023/12/27 12:56:15;;;;;;;11.40;5.73;;;;;;;;;;5035435;28;21046;-79
2023/12/27 12:58:44;;;;;;;17.00;4.37;;;;;;;;;;5035785;28;20641;-80
2023/12/27 13:01:11;;;;;;;14.13;5.10;;;;;;;;;;5035299;28;21049;-80
2023/12/27 13:03:41;;;;;;;12.63;5.00;;;;;;;;;;5035960;28;20444;-80
2023/12/27 13:06:07;;;;;;;15.07;5.23;;;;;;;;;;5035335;28;20474;-80
2023/12/27 13:08:34;;;;;;;21.63;6.20;;;;;;;;;;5035553;28;20447;-80
2023/12/27 13:11:00;;;;;;;13.07;4.90;;;;;;;;;;5035252;28;20465;-80
2023/12/27 13:13:27;;;;;;;19.80;5.73;;;;;;;;;;5035550;28;20535;-80
2023/12/27 13:15:55;;;;;;;15.50;5.83;;;;;;;;;;5035121;28;20572;-80
2023/12/27 13:18:21;;;;;;;11.60;5.63;;;;;;;;;;5036356;28;21016;-80
2023/12/27 13:20:48;;;;;;;16.97;6.10;;;;;;;;;;5035184;28;20529;-80
2023/12/27 13:23:15;;;;;;;14.23;7.07;;;;;;;;;;5035612;28;20487;-80
2023/12/27 13:25:42;;;;;;;14.40;6.40;;;;;;;;;;5034945;28;20507;-80
2023/12/27 13:28:09;;;;;;;20.50;6.43;;;;;;;;;;5035225;28;20445;-80
2023/12/27 13:30:35;;;;;;;14.43;5.20;;;;;;;;;;5035109;28;20535;-80
2023/12/27 13:33:03;;;;;;;18.10;7.10;;;;;;;;;;5035516;28;20860;-80
2023/12/27 13:35:31;;;;;;;9.97;5.97;;;;;;;;;;5034454;28;20457;-80
2023/12/27 13:37:57;;;;;;;15.97;7.50;;;;;;;;;;5034948;28;20487;-80
2023/12/27 13:40:24;;;;;;;12.10;6.37;;;;;;;;;;5034932;28;20532;-78
2023/12/27 13:42:50;;;;;;;22.27;7.77;;;;;;;;;;5034796;28;21062;-80
2023/12/27 13:45:17;;;;;;;23.73;8.93;;;;;;;;;;5035056;28;20488;-80
2023/12/27 13:47:43;;;;;;;28.27;10.13;;;;;;;;;;5035011;28;20527;-78
2023/12/27 13:50:11;;;;;;;25.00;8.80;;;;;;;;;;5035105;28;20468;-80
2023/12/27 13:52:38;;;;;;;29.20;10.40;;;;;;;;;;5034192;28;21061;-80
2023/12/27 13:55:05;;;;;;;25.70;11.30;;;;;;;;;;5034587;28;20461;-80
2023/12/27 13:57:31;;;;;;;25.60;9.57;;;;;;;;;;5034025;28;20555;-82
2023/12/27 13:59:58;;;;;;;20.90;9.70;;;;;;;;;;5035160;28;20536;-80
2023/12/27 14:02:24;;;;;;;20.77;9.30;;;;;;;;;;5034197;28;21094;-80
2023/12/27 14:04:51;;;;;;;27.77;11.00;;;;;;;;;;5034458;28;20903;-80
2023/12/27 14:07:19;;;;;;;29.20;11.10;;;;;;;;;;5033910;28;20481;-80
2023/12/27 14:09:46;;;;;;;27.60;11.13;;;;;;;;;;5034450;28;20997;-80
2023/12/27 14:12:12;;;;;;;20.47;11.10;;;;;;;;;;5034282;28;20515;-80
2023/12/27 14:14:40;;;;;;;19.83;9.83;;;;;;;;;;5034559;28;20457;-80
2023/12/27 14:17:06;;;;;;;26.70;11.40;;;;;;;;;;5034529;28;20480;-80
2023/12/27 14:19:32;;;;;;;21.40;9.37;;;;;;;;;;5034479;28;20471;-80
2023/12/27 14:21:59;;;;;;;15.43;9.70;;;;;;;;;;5034083;28;21052;-80
2023/12/27 14:24:27;;;;;;;17.40;9.07;;;;;;;;;;5034374;28;20468;-80
2023/12/27 14:26:54;;;;;;;16.53;9.80;;;;;;;;;;5033730;28;21077;-80
2023/12/27 14:29:20;;;;;;;18.43;11.00;;;;;;;;;;5034210;28;20441;-79
2023/12/27 14:31:47;;;;;;;21.23;9.30;;;;;;;;;;5033780;28;20901;-79
2023/12/27 14:34:14;;;;;;;20.13;12.50;;;;;;;;;;5033854;28;20480;-80